Time;durP1;ratioP1;P1;durP2;ratioP2;P2;SDS_P1;SDS_P2;PMS_P1;PMS_P2;Temp;Humidity;BMP_temperature;BMP_pressure;BME280_temperature;BME280_humidity;BME280_pressure;Samples;Min_cycle;Max_cycle;Signal;HPM_P1;HPM_P2
2022/02/21 00:00:57;;;;;;;12.33;6.45;;;;;;;4.29;72.30;143318.56;1726138;83;21019;-57
2022/02/21 00:03:25;;;;;;;10.63;5.47;;;;;;;4.25;72.65;143309.86;1726006;82;21524;-57
2022/02/21 00:05:53;;;;;;;10.28;5.15;;;;;;;4.23;72.85;143303.63;1726123;83;21007;-56
2022/02/21 00:08:21;;;;;;;13.83;6.17;;;;;;;4.23;73.00;143303.63;1726031;82;21175;-58
2022/02/21 00:10:49;;;;;;;12.40;5.85;;;;;;;4.22;73.56;143301.09;1690969;84;21039;-58
2022/02/21 00:13:16;;;;;;;14.68;6.05;;;;;;;4.23;73.64;143303.63;1703365;84;21043;-56
2022/02/21 00:15:43;;;;;;;11.80;5.47;;;;;;;4.27;73.84;143313.58;1703230;84;21096;-58
2022/02/21 00:18:12;;;;;;;13.78;6.10;;;;;;;4.31;74.05;143323.58;1703170;83;21039;-58
2022/02/21 00:20:39;;;;;;;11.57;6.08;;;;;;;4.33;74.17;143328.58;1712696;84;21076;-57
2022/02/21 00:23:08;;;;;;;9.70;5.35;;;;;;;4.33;74.40;143328.58;1715642;83;21017;-58
2022/02/21 00:25:36;;;;;;;12.80;6.20;;;;;;;4.29;74.55;143318.56;1715882;84;21080;-57
2022/02/21 00:28:04;;;;;;;15.23;5.92;;;;;;;4.24;74.87;143306.09;1706396;84;21051;-56
2022/02/21 00:30:32;;;;;;;13.60;6.20;;;;;;;4.17;75.08;143288.63;1710493;83;21546;-57
2022/02/21 00:32:59;;;;;;;11.50;5.83;;;;;;;4.07;75.39;143266.19;1715538;84;21036;-57
2022/02/21 00:35:28;;;;;;;13.05;6.33;;;;;;;3.97;75.89;143241.25;1715365;84;21045;-58
2022/02/21 00:37:55;;;;;;;13.98;6.35;;;;;;;3.88;76.32;143218.78;1715053;84;21095;-58
2022/02/21 00:40:22;;;;;;;11.90;5.62;;;;;;;3.78;76.69;143193.84;1715852;84;21012;-57
2022/02/21 00:42:48;;;;;;;11.38;6.05;;;;;;;3.70;77.56;143175.12;1715522;84;21051;-58
2022/02/21 00:45:15;;;;;;;13.05;5.65;;;;;;;3.62;77.86;143156.44;1715895;83;21014;-57
2022/02/21 00:47:42;;;;;;;9.58;5.35;;;;;;;3.55;78.61;143137.72;1696667;83;21036;-58
2022/02/21 00:50:10;;;;;;;13.53;6.30;;;;;;;3.48;79.07;143122.73;1692436;85;21090;-57
2022/02/21 00:52:38;;;;;;;10.88;5.87;;;;;;;3.45;79.40;143115.27;1692401;83;21048;-57
2022/02/21 00:55:07;;;;;;;10.53;6.12;;;;;;;3.42;79.86;143107.80;1692449;83;21035;-57
2022/02/21 00:57:34;;;;;;;10.40;5.90;;;;;;;3.36;80.06;143092.84;1707106;83;21036;-57
2022/02/21 01:00:04;;;;;;;13.65;6.33;;;;;;;3.29;80.71;143075.39;1713354;84;21582;-57
2022/02/21 01:02:32;;;;;;;15.83;6.53;;;;;;;3.22;81.09;143059.17;1713215;84;21028;-57
2022/02/21 01:05:00;;;;;;;11.93;5.90;;;;;;;3.16;81.31;143044.22;1710628;84;21039;-57
2022/02/21 01:07:27;;;;;;;12.28;6.00;;;;;;;3.10;81.77;143029.25;1702983;84;21047;-57
2022/02/21 01:09:54;;;;;;;13.48;6.37;;;;;;;3.07;82.30;143021.78;1703185;83;21083;-57
2022/02/21 01:12:21;;;;;;;14.30;6.70;;;;;;;3.04;82.82;143014.31;1703090;84;21541;-58
2022/02/21 01:14:48;;;;;;;13.80;6.85;;;;;;;3.04;83.13;143015.55;1702883;84;21039;-57
2022/02/21 01:17:15;;;;;;;12.23;6.90;;;;;;;3.00;83.33;143004.31;1713255;83;21475;-57
2022/02/21 01:19:42;;;;;;;13.13;6.03;;;;;;;2.99;83.78;143001.84;1713279;84;21041;-55
2022/02/21 01:22:09;;;;;;;14.90;6.30;;;;;;;2.91;84.19;142981.92;1713188;84;21045;-55
2022/02/21 01:24:38;;;;;;;14.85;6.65;;;;;;;2.86;84.62;142969.45;1713309;84;21033;-56
2022/02/21 01:27:04;;;;;;;11.93;5.90;;;;;;;2.81;85.26;142958.23;1704944;84;21083;-57
2022/02/21 01:29:31;;;;;;;11.38;5.90;;;;;;;2.78;85.39;142952.00;1702742;84;21039;-56
2022/02/21 01:31:58;;;;;;;15.88;7.03;;;;;;;2.75;85.80;142943.30;1700385;84;21075;-56
2022/02/21 01:34:25;;;;;;;10.53;6.03;;;;;;;2.72;85.92;142935.78;1700308;84;21067;-56
2022/02/21 01:36:52;;;;;;;19.05;7.50;;;;;;;2.64;86.41;142915.86;1707732;84;21089;-57
2022/02/21 01:39:20;;;;;;;12.73;6.42;;;;;;;2.59;86.68;142904.64;1713001;83;21049;-58
2022/02/21 01:41:49;;;;;;;11.28;6.37;;;;;;;2.53;86.98;142889.72;1713002;84;21073;-58
2022/02/21 01:44:17;;;;;;;12.43;6.37;;;;;;;2.51;87.15;142884.72;1713165;84;21032;-56
2022/02/21 01:46:45;;;;;;;11.83;6.10;;;;;;;2.51;87.37;142884.72;1706444;84;21071;-56
2022/02/21 01:49:13;;;;;;;18.37;8.03;;;;;;;2.49;87.71;142880.97;1695013;85;21047;-57
2022/02/21 01:51:40;;;;;;;14.00;6.35;;;;;;;2.49;87.86;142879.72;1695356;84;21118;-56
2022/02/21 01:54:10;;;;;;;11.40;6.28;;;;;;;2.48;87.96;142877.25;1694957;85;21051;-57
2022/02/21 01:56:37;;;;;;;12.40;6.12;;;;;;;2.44;88.21;142868.50;1698809;84;21498;-56
2022/02/21 01:59:05;;;;;;;16.80;5.78;;;;;;;2.40;88.35;142858.56;1710244;84;21045;-57
2022/02/21 02:01:32;;;;;;;11.93;5.92;;;;;;;2.38;88.76;142854.81;1705270;84;21104;-57
2022/02/21 02:04:04;;;;;;;11.88;6.35;;;;;;;2.38;88.94;142854.81;1705248;83;21088;-58
2022/02/21 02:06:33;;;;;;;15.98;8.33;;;;;;;2.37;89.24;142852.34;1699224;84;21008;-58
2022/02/21 02:09:00;;;;;;;14.20;6.78;;;;;;;2.38;89.37;142854.81;1697695;83;20991;-56
2022/02/21 02:11:27;;;;;;;10.40;6.20;;;;;;;2.37;89.45;142852.34;1697727;83;21028;-58
2022/02/21 02:13:54;;;;;;;15.13;7.65;;;;;;;2.34;89.60;142844.87;1697714;83;21062;-57
2022/02/21 02:16:21;;;;;;;9.65;6.10;;;;;;;2.31;90.05;142837.36;1701730;84;21049;-59
2022/02/21 02:18:48;;;;;;;12.13;6.20;;;;;;;2.28;90.29;142829.91;1705212;83;21048;-59
2022/02/21 02:21:22;;;;;;;13.83;6.47;;;;;;;2.27;90.64;142827.44;1705286;84;21045;-55
2022/02/21 02:23:50;;;;;;;10.40;6.35;;;;;;;2.28;91.00;142829.91;1703038;84;21052;-56
2022/02/21 02:26:18;;;;;;;13.40;7.70;;;;;;;2.27;91.31;142827.44;1742790;81;21016;-57
2022/02/21 02:28:53;;;;;;;12.50;6.37;;;;;;;2.23;91.48;142816.22;1742805;81;20996;-56
2022/02/21 02:31:21;;;;;;;12.63;7.72;;;;;;;2.19;91.69;142807.52;1743103;82;21005;-57
2022/02/21 02:33:48;;;;;;;14.38;7.92;;;;;;;2.16;91.97;142800.00;1744440;81;21021;-58
2022/02/21 02:36:14;;;;;;;14.07;8.30;;;;;;;2.13;92.38;142793.78;1713224;82;21498;-57
2022/02/21 02:38:42;;;;;;;11.63;6.55;;;;;;;2.13;92.55;142793.78;1748835;82;21071;-58
2022/02/21 02:41:10;;;;;;;14.55;7.15;;;;;;;2.11;92.83;142788.83;1713355;83;21027;-59
2022/02/21 02:43:38;;;;;;;11.05;6.12;;;;;;;2.10;92.91;142785.08;1747952;81;21114;-57
2022/02/21 02:46:05;;;;;;;12.28;6.95;;;;;;;2.08;93.12;142780.09;1743047;81;21513;-57
2022/02/21 02:48:33;;;;;;;12.15;6.53;;;;;;;2.07;93.38;142777.63;1742774;82;20997;-56
2022/02/21 02:51:00;;;;;;;13.03;7.75;;;;;;;2.08;93.46;142780.09;1742981;81;21004;-58
2022/02/21 02:53:29;;;;;;;11.95;8.03;;;;;;;2.11;93.87;142787.55;1742761;82;21036;-57
2022/02/21 02:55:56;;;;;;;11.65;7.55;;;;;;;2.15;94.01;142797.53;1749100;82;21032;-58
2022/02/21 02:58:23;;;;;;;15.98;8.23;;;;;;;2.14;93.71;142795.06;1713132;84;21051;-57
2022/02/21 03:00:51;;;;;;;13.65;7.37;;;;;;;2.13;93.72;142792.53;1713249;82;21105;-57
2022/02/21 03:03:18;;;;;;;15.45;8.23;;;;;;;2.14;93.77;142795.06;1748880;82;21119;-56
2022/02/21 03:05:46;;;;;;;17.02;8.75;;;;;;;2.15;93.89;142797.53;1711883;83;21040;-57
2022/02/21 03:08:12;;;;;;;16.82;8.53;;;;;;;2.16;93.92;142800.00;1742994;82;21007;-58
2022/02/21 03:10:39;;;;;;;16.20;8.50;;;;;;;2.18;93.93;142805.00;1732700;82;21028;-58
2022/02/21 03:13:06;;;;;;;15.10;8.10;;;;;;;2.20;93.94;142809.98;1732397;82;21545;-58
2022/02/21 03:15:34;;;;;;;14.75;7.28;;;;;;;2.23;93.89;142817.45;1740512;82;21534;-57
2022/02/21 03:18:01;;;;;;;13.53;8.55;;;;;;;2.24;93.91;142819.97;1742666;81;21064;-56
2022/02/21 03:20:28;;;;;;;15.70;8.00;;;;;;;2.23;93.91;142817.45;1742755;82;21004;-58
2022/02/21 03:22:55;;;;;;;13.55;8.45;;;;;;;2.24;94.04;142819.97;1742755;81;21008;-56
2022/02/21 03:25:21;;;;;;;15.72;7.55;;;;;;;2.26;94.00;142824.91;1746885;82;21135;-57
2022/02/21 03:27:48;;;;;;;14.28;7.80;;;;;;;2.29;93.89;142831.14;1712983;84;21528;-58
2022/02/21 03:30:15;;;;;;;15.60;8.45;;;;;;;2.30;93.80;142834.89;1748860;82;21036;-58
2022/02/21 03:32:42;;;;;;;18.62;10.08;;;;;;;2.31;93.68;142837.36;1712970;83;21078;-57
2022/02/21 03:35:09;;;;;;;15.68;8.83;;;;;;;2.32;93.69;142839.88;1746183;82;21024;-56
2022/02/21 03:37:36;;;;;;;19.90;10.53;;;;;;;2.32;93.73;142839.88;1742706;82;21068;-56
2022/02/21 03:40:08;;;;;;;15.38;9.18;;;;;;;2.33;93.78;142842.36;1742910;81;21028;-58
2022/02/21 03:42:36;;;;;;;17.55;9.60;;;;;;;2.25;93.95;142822.44;1743258;82;21015;-56
2022/02/21 03:45:05;;;;;;;17.12;9.58;;;;;;;2.20;94.06;142808.75;1713211;83;21036;-56
2022/02/21 03:47:33;;;;;;;14.73;8.18;;;;;;;2.18;94.28;142805.00;1749276;81;21005;-56
2022/02/21 03:50:00;;;;;;;16.52;8.50;;;;;;;2.16;94.28;142801.28;1713321;83;21004;-57
2022/02/21 03:52:26;;;;;;;17.73;9.30;;;;;;;2.17;94.37;142802.53;1749123;81;20985;-57
2022/02/21 03:54:53;;;;;;;18.60;9.78;;;;;;;2.19;94.40;142807.52;1708474;82;21507;-58
2022/02/21 03:57:19;;;;;;;20.75;11.10;;;;;;;2.24;94.33;142818.69;1742990;82;21048;-58
2022/02/21 03:59:46;;;;;;;19.70;9.83;;;;;;;2.29;94.14;142831.14;1748525;81;21482;-59
2022/02/21 04:02:13;;;;;;;19.35;10.40;;;;;;;2.29;93.95;142831.14;1756589;82;21024;-58
2022/02/21 04:04:40;;;;;;;17.75;9.88;;;;;;;2.26;93.79;142824.91;1759950;80;21016;-56
2022/02/21 04:07:06;;;;;;;21.00;11.03;;;;;;;2.19;93.76;142807.52;1726087;83;21035;-56
2022/02/21 04:09:33;;;;;;;18.55;10.03;;;;;;;2.14;93.95;142795.06;1708172;84;21577;-58
2022/02/21 04:12:02;;;;;;;20.48;11.28;;;;;;;2.13;94.16;142793.78;1704224;84;21052;-57
2022/02/21 04:14:30;;;;;;;22.50;10.95;;;;;;;2.06;94.21;142775.09;1703149;84;21012;-58
2022/02/21 04:16:56;;;;;;;19.90;10.72;;;;;;;2.02;94.61;142766.41;1703091;84;21055;-57
2022/02/21 04:19:24;;;;;;;20.37;10.68;;;;;;;2.04;94.65;142770.16;1703259;84;21039;-58
2022/02/21 04:21:52;;;;;;;19.87;11.30;;;;;;;2.02;94.60;142765.17;1703322;83;21079;-55
2022/02/21 04:24:18;;;;;;;19.62;11.35;;;;;;;2.03;94.66;142767.64;1715856;84;21033;-55
2022/02/21 04:26:45;;;;;;;23.05;12.68;;;;;;;2.05;94.70;142773.86;1714744;83;21040;-57
2022/02/21 04:29:12;;;;;;;22.32;12.20;;;;;;;2.11;94.54;142787.55;1714904;82;21020;-55
2022/02/21 04:31:39;;;;;;;21.50;11.35;;;;;;;2.11;94.43;142787.55;1715663;83;21083;-57
2022/02/21 04:34:05;;;;;;;21.62;11.73;;;;;;;2.08;94.37;142781.33;1715497;83;21546;-57
2022/02/21 04:36:34;;;;;;;21.35;11.57;;;;;;;2.07;94.45;142777.63;1715684;83;21055;-58
2022/02/21 04:39:02;;;;;;;21.33;12.73;;;;;;;2.05;94.49;142772.62;1712342;83;21043;-57
2022/02/21 04:41:29;;;;;;;24.90;12.35;;;;;;;2.07;94.54;142778.86;1714513;83;21005;-57
2022/02/21 04:43:57;;;;;;;27.05;13.48;;;;;;;2.15;94.36;142797.53;1715376;83;21111;-57
2022/02/21 04:46:23;;;;;;;25.48;12.15;;;;;;;2.20;94.00;142808.75;1715489;84;21064;-56
2022/02/21 04:48:50;;;;;;;26.65;14.23;;;;;;;2.23;93.81;142817.45;1715604;83;21035;-57
2022/02/21 04:51:17;;;;;;;28.02;13.72;;;;;;;2.27;93.58;142827.44;1715777;84;21036;-55
2022/02/21 04:53:44;;;;;;;27.05;13.55;;;;;;;2.34;93.46;142843.59;1715580;84;21059;-60
2022/02/21 04:56:11;;;;;;;28.60;13.03;;;;;;;2.42;93.21;142863.56;1716736;83;21076;-58
2022/02/21 04:58:37;;;;;;;24.07;12.73;;;;;;;2.54;92.72;142892.19;1717200;83;21569;-59
2022/02/21 05:01:04;;;;;;;24.43;13.20;;;;;;;2.62;92.18;142912.16;1701252;83;21070;-59
2022/02/21 05:03:31;;;;;;;21.35;11.78;;;;;;;2.67;91.44;142924.61;1710568;82;21043;-56
2022/02/21 05:05:58;;;;;;;22.80;11.75;;;;;;;2.71;90.85;142934.55;1705978;84;20985;-57
2022/02/21 05:08:26;;;;;;;22.48;10.63;;;;;;;2.70;90.45;142930.84;1702696;83;21013;-59
2022/02/21 05:10:54;;;;;;;20.55;10.85;;;;;;;2.74;90.12;142940.78;1691611;85;21127;-57
2022/02/21 05:13:21;;;;;;;15.78;9.40;;;;;;;2.81;89.77;142958.23;1694976;84;21071;-55
2022/02/21 05:15:47;;;;;;;17.15;9.43;;;;;;;2.89;89.13;142978.16;1743277;82;21308;-58
2022/02/21 05:18:15;;;;;;;15.03;9.05;;;;;;;2.96;88.27;142994.38;1728355;82;20988;-58
2022/02/21 05:20:41;;;;;;;19.80;8.85;;;;;;;2.99;87.92;143001.84;1740159;81;21008;-58
2022/02/21 05:23:08;;;;;;;14.95;8.80;;;;;;;3.04;87.44;143015.55;1737075;81;21137;-58
2022/02/21 05:25:35;;;;;;;14.18;8.35;;;;;;;3.07;86.80;143021.78;1737215;81;21628;-55
2022/02/21 05:28:02;;;;;;;16.65;9.25;;;;;;;3.08;86.31;143024.30;1737089;81;21023;-58
2022/02/21 05:30:29;;;;;;;18.27;9.40;;;;;;;3.09;85.83;143026.78;1736883;81;21094;-58
2022/02/21 05:32:55;;;;;;;16.32;9.53;;;;;;;3.10;85.65;143028.00;1744828;82;21568;-58
2022/02/21 05:35:22;;;;;;;16.80;8.90;;;;;;;3.14;85.34;143039.23;1711336;83;21094;-57
2022/02/21 05:37:49;;;;;;;20.35;8.73;;;;;;;3.21;84.89;143056.69;1745790;82;21581;-57
2022/02/21 05:40:16;;;;;;;23.55;10.40;;;;;;;3.29;84.74;143074.16;1708702;84;21765;-61
2022/02/21 05:42:43;;;;;;;19.73;9.63;;;;;;;3.36;84.28;143091.56;1710971;82;21028;-60
2022/02/21 05:45:09;;;;;;;18.73;9.53;;;;;;;3.41;83.71;143105.31;1747094;82;21023;-60
2022/02/21 05:47:36;;;;;;;18.02;9.18;;;;;;;3.49;82.96;143124.02;1708702;84;21149;-59
2022/02/21 05:50:04;;;;;;;19.75;9.30;;;;;;;3.57;82.58;143143.95;1712160;82;21031;-57
2022/02/21 05:52:32;;;;;;;19.27;10.10;;;;;;;3.63;81.67;143158.91;1743687;82;21166;-57
2022/02/21 05:55:00;;;;;;;18.45;9.90;;;;;;;3.69;81.17;143173.89;1742574;81;21075;-59
2022/02/21 05:57:30;;;;;;;17.80;8.78;;;;;;;3.72;80.54;143178.89;1742249;82;21064;-57
2022/02/21 05:59:57;;;;;;;17.40;9.48;;;;;;;3.76;80.01;143188.84;1745817;81;21482;-58
2022/02/21 06:02:24;;;;;;;19.85;9.43;;;;;;;3.80;79.66;143198.83;1723305;82;21039;-60
2022/02/21 06:04:50;;;;;;;19.05;10.32;;;;;;;3.83;79.27;143207.55;1722017;82;21340;-60
2022/02/21 06:07:17;;;;;;;18.12;9.80;;;;;;;3.89;79.04;143221.25;1699779;84;21039;-61
2022/02/21 06:09:47;;;;;;;16.20;8.95;;;;;;;3.97;78.51;143241.25;1706393;84;21527;-57
2022/02/21 06:12:14;;;;;;;19.40;10.65;;;;;;;4.04;78.12;143257.44;1710402;83;21072;-58
2022/02/21 06:14:40;;;;;;;20.92;9.90;;;;;;;4.08;77.38;143268.67;1710307;84;22263;-59
2022/02/21 06:17:07;;;;;;;17.80;9.18;;;;;;;4.13;77.06;143281.14;1706751;83;21541;-60
2022/02/21 06:19:34;;;;;;;15.40;9.18;;;;;;;4.19;76.58;143294.86;1713755;83;21051;-55
2022/02/21 06:22:02;;;;;;;18.37;9.03;;;;;;;4.24;76.21;143307.34;1714040;83;21064;-58
2022/02/21 06:24:29;;;;;;;17.98;9.33;;;;;;;4.30;75.88;143321.05;1714239;83;21071;-57
2022/02/21 06:26:56;;;;;;;14.78;9.10;;;;;;;4.33;75.34;143329.81;1711186;83;21556;-58
2022/02/21 06:29:23;;;;;;;20.35;9.43;;;;;;;4.34;74.88;143331.05;1703204;83;20971;-57
2022/02/21 06:31:50;;;;;;;22.10;9.40;;;;;;;4.35;74.84;143334.81;1715413;82;21062;-58
2022/02/21 06:34:18;;;;;;;15.70;8.45;;;;;;;4.37;74.48;143337.28;1715549;82;21025;-56
2022/02/21 06:36:45;;;;;;;14.40;8.63;;;;;;;4.38;74.11;143341.05;1714382;84;21065;-55
2022/02/21 06:39:11;;;;;;;17.27;9.03;;;;;;;4.39;73.92;143343.53;1713096;84;21086;-55
2022/02/21 06:41:38;;;;;;;17.65;9.25;;;;;;;4.41;73.71;143348.53;1709732;84;21125;-57
2022/02/21 06:44:06;;;;;;;16.95;9.10;;;;;;;4.41;73.34;143348.53;1702174;84;21063;-56
2022/02/21 06:46:33;;;;;;;16.50;8.40;;;;;;;4.43;73.07;143353.53;1712213;84;20992;-56
2022/02/21 06:48:59;;;;;;;21.45;9.00;;;;;;;4.47;73.02;143363.48;1713739;84;21123;-57
2022/02/21 06:51:26;;;;;;;19.05;8.58;;;;;;;4.53;72.70;143378.48;1703060;84;21086;-59
2022/02/21 06:53:53;;;;;;;17.50;9.00;;;;;;;4.60;71.95;143394.67;1702132;84;21047;-60
2022/02/21 06:56:19;;;;;;;18.50;9.90;;;;;;;4.63;71.85;143400.91;1706202;84;21033;-60
2022/02/21 06:58:46;;;;;;;17.45;9.30;;;;;;;4.66;71.40;143409.69;1708377;84;21054;-58
2022/02/21 07:01:13;;;;;;;18.95;9.28;;;;;;;4.73;71.06;143427.16;1708791;84;21539;-58
2022/02/21 07:03:39;;;;;;;19.15;9.70;;;;;;;4.84;70.76;143453.36;1707284;84;21080;-59
2022/02/21 07:06:08;;;;;;;13.80;9.13;;;;;;;4.93;69.99;143474.56;1707355;84;21095;-59
2022/02/21 07:08:35;;;;;;;18.95;8.43;;;;;;;4.98;69.82;143488.28;1712593;84;21068;-62
2022/02/21 07:11:02;;;;;;;16.60;8.53;;;;;;;5.09;69.51;143513.25;1714305;83;21036;-58
2022/02/21 07:13:29;;;;;;;19.50;9.10;;;;;;;5.22;69.02;143547.00;1752990;80;21106;-55
2022/02/21 07:15:56;;;;;;;17.12;8.73;;;;;;;5.37;68.23;143583.22;1753572;80;21026;-56
2022/02/21 07:18:23;;;;;;;20.10;9.23;;;;;;;5.45;67.53;143601.95;1715760;82;21039;-56
2022/02/21 07:20:49;;;;;;;18.52;8.93;;;;;;;5.54;67.22;143623.16;1754040;80;21011;-54
2022/02/21 07:23:16;;;;;;;19.00;10.53;;;;;;;5.64;66.95;143648.14;1750071;80;21070;-54
2022/02/21 07:25:43;;;;;;;15.60;8.75;;;;;;;5.73;66.43;143670.66;1752414;82;21032;-55
2022/02/21 07:28:10;;;;;;;23.85;9.18;;;;;;;5.79;65.88;143684.38;1753953;80;21036;-56
2022/02/21 07:30:37;;;;;;;20.05;9.35;;;;;;;5.78;65.55;143681.91;1754350;80;21012;-56
2022/02/21 07:33:04;;;;;;;18.70;8.80;;;;;;;5.72;65.37;143666.88;1754076;80;21041;-52
2022/02/21 07:35:31;;;;;;;17.52;9.35;;;;;;;5.67;65.48;143655.63;1749866;80;21042;-55
2022/02/21 07:37:57;;;;;;;18.32;9.95;;;;;;;5.66;65.49;143653.16;1754473;80;20978;-56
2022/02/21 07:40:25;;;;;;;23.18;9.38;;;;;;;5.64;65.44;143649.38;1754364;82;20957;-53
2022/02/21 07:42:54;;;;;;;18.73;10.05;;;;;;;5.66;65.36;143654.39;1754247;82;21110;-55
2022/02/21 07:45:24;;;;;;;14.43;8.88;;;;;;;5.69;65.16;143660.64;1743011;82;21094;-54
2022/02/21 07:47:58;;;;;;;14.95;8.43;;;;;;;5.69;64.94;143660.64;1753616;80;21616;-54
2022/02/21 07:50:29;;;;;;;17.95;9.40;;;;;;;5.66;64.92;143654.39;1715642;82;20991;-61
2022/02/21 07:52:58;;;;;;;18.30;10.10;;;;;;;5.71;64.76;143665.64;1753685;80;21015;-57
2022/02/21 07:55:27;;;;;;;16.20;9.15;;;;;;;5.77;64.69;143680.61;1697215;84;20996;-55
2022/02/21 07:57:54;;;;;;;18.85;9.45;;;;;;;5.84;64.33;143698.11;1690334;84;21543;-63
2022/02/21 08:00:21;;;;;;;16.60;7.83;;;;;;;5.97;64.24;143728.16;1751311;81;21071;-55
2022/02/21 08:02:47;;;;;;;19.85;9.05;;;;;;;6.12;63.48;143764.41;1742723;81;21012;-57
2022/02/21 08:05:14;;;;;;;15.08;8.10;;;;;;;6.30;62.73;143810.63;1744864;81;21122;-58
2022/02/21 08:07:43;;;;;;;18.27;9.50;;;;;;;6.41;62.41;143836.91;1711904;83;21145;-57
2022/02/21 08:10:10;;;;;;;20.05;9.75;;;;;;;6.55;61.84;143869.39;1746178;81;21119;-57
2022/02/21 08:12:38;;;;;;;28.75;9.38;;;;;;;6.61;61.22;143885.61;1742152;82;21558;-57
2022/02/21 08:15:06;;;;;;;18.42;8.90;;;;;;;6.68;61.16;143903.13;1744156;82;21012;-57
2022/02/21 08:17:43;;;;;;;18.15;8.38;;;;;;;6.73;60.56;143914.39;1707416;83;21550;-56
2022/02/21 08:20:12;;;;;;;14.87;7.78;;;;;;;6.78;60.52;143925.66;1709667;84;21043;-57
2022/02/21 08:22:39;;;;;;;15.10;8.08;;;;;;;6.82;60.21;143935.63;1711562;84;21513;-56
2022/02/21 08:25:08;;;;;;;23.25;9.50;;;;;;;6.90;59.87;143955.67;1712220;84;21087;-58
2022/02/21 08:27:37;;;;;;;21.80;9.55;;;;;;;7.08;59.49;144000.67;1734076;82;20974;-60
2022/02/21 08:30:09;;;;;;;17.05;8.08;;;;;;;7.31;59.08;144055.72;1712286;82;21019;-55
2022/02/21 08:32:35;;;;;;;20.75;8.05;;;;;;;7.43;58.51;144085.75;1705911;84;21080;-58
2022/02/21 08:35:03;;;;;;;18.15;8.78;;;;;;;7.54;57.69;144113.25;1744693;82;21028;-55
2022/02/21 08:37:30;;;;;;;15.90;7.17;;;;;;;7.73;57.36;144158.28;1712077;83;21078;-55
2022/02/21 08:39:56;;;;;;;18.42;8.00;;;;;;;7.79;56.63;144174.56;1747255;82;21021;-58
2022/02/21 08:42:23;;;;;;;14.78;7.22;;;;;;;8.24;55.99;144283.44;1707888;82;21091;-58
2022/02/21 08:44:50;;;;;;;15.68;7.40;;;;;;;8.53;55.25;144353.63;1746924;81;21064;-57
2022/02/21 08:47:17;;;;;;;18.32;7.65;;;;;;;8.68;54.04;144391.19;1746877;82;21044;-65
2022/02/21 08:49:44;;;;;;;15.35;7.10;;;;;;;8.70;53.96;144396.17;1746922;82;20992;-57
2022/02/21 08:52:11;;;;;;;16.52;7.45;;;;;;;8.63;53.63;144379.91;1747763;81;20971;-60
2022/02/21 08:54:37;;;;;;;12.23;6.70;;;;;;;8.56;53.64;144361.13;1709635;83;21114;-56
2022/02/21 08:57:06;;;;;;;13.35;7.05;;;;;;;8.56;53.62;144361.13;1747277;81;21084;-56
2022/02/21 08:59:33;;;;;;;18.15;7.55;;;;;;;8.60;53.55;144371.13;1711879;82;21091;-59
2022/02/21 09:02:00;;;;;;;15.03;7.75;;;;;;;8.73;53.54;144403.72;1747655;81;21146;-63
2022/02/21 09:04:27;;;;;;;13.38;6.80;;;;;;;8.83;53.09;144428.77;1711560;83;21023;-64
2022/02/21 09:06:54;;;;;;;12.30;6.80;;;;;;;8.87;52.57;144437.52;1707528;83;21047;-57
2022/02/21 09:09:22;;;;;;;16.25;8.60;;;;;;;8.81;52.68;144423.75;1746533;81;21032;-59
2022/02/21 09:11:52;;;;;;;17.25;7.87;;;;;;;8.84;52.57;144430.00;1737744;82;21274;-58
2022/02/21 09:14:19;;;;;;;12.95;6.78;;;;;;;8.82;52.62;144426.23;1744732;82;21048;-60
2022/02/21 09:16:46;;;;;;;16.20;7.65;;;;;;;8.73;52.11;144402.42;1711160;82;21530;-58
2022/02/21 09:19:14;;;;;;;12.85;6.50;;;;;;;8.59;52.63;144369.87;1745271;82;21134;-58
2022/02/21 09:21:41;;;;;;;12.53;6.45;;;;;;;8.47;52.74;144339.81;1739347;82;21016;-56
2022/02/21 09:24:07;;;;;;;11.25;6.47;;;;;;;8.44;52.70;144333.56;1741815;82;21564;-54
2022/02/21 09:26:34;;;;;;;15.43;7.67;;;;;;;8.44;52.82;144333.56;1742509;82;21083;-65
2022/02/21 09:29:01;;;;;;;14.05;7.83;;;;;;;8.54;52.80;144357.36;1741988;82;21020;-58
2022/02/21 09:31:27;;;;;;;17.17;6.72;;;;;;;8.61;52.43;144373.66;1741527;81;21075;-58
2022/02/21 09:33:54;;;;;;;13.32;6.15;;;;;;;8.63;52.52;144379.91;1741854;81;21094;-61
2022/02/21 09:36:21;;;;;;;16.93;7.90;;;;;;;8.67;52.25;144388.66;1742739;82;21075;-60
2022/02/21 09:38:48;;;;;;;17.32;7.70;;;;;;;8.71;52.30;144398.70;1742092;81;21541;-60
2022/02/21 09:41:16;;;;;;;19.70;9.13;;;;;;;8.74;52.36;144406.20;1741611;82;21063;-62
2022/02/21 09:43:42;;;;;;;16.77;6.97;;;;;;;8.80;52.21;144421.25;1741617;82;21071;-62
2022/02/21 09:46:10;;;;;;;17.50;6.47;;;;;;;8.76;51.78;144409.98;1742801;81;21086;-59
2022/02/21 09:48:39;;;;;;;12.15;6.20;;;;;;;8.68;51.75;144392.44;1742174;82;21015;-58
2022/02/21 09:51:07;;;;;;;11.50;6.40;;;;;;;8.65;51.98;144383.64;1741488;82;21107;-59
2022/02/21 09:53:37;;;;;;;13.85;6.45;;;;;;;8.59;51.98;144369.87;1741601;82;21044;-55
2022/02/21 09:56:06;;;;;;;11.97;5.92;;;;;;;8.57;52.22;144363.63;1723725;82;21148;-61
2022/02/21 09:58:34;;;;;;;15.43;6.72;;;;;;;8.58;52.23;144366.16;1711880;83;21078;-60
2022/02/21 10:01:01;;;;;;;16.27;7.08;;;;;;;8.55;52.33;144358.59;1749679;81;21106;-60
2022/02/21 10:03:45;;;;;;;14.03;6.90;;;;;;;8.57;52.35;144363.63;1760260;81;21624;-57
2022/02/21 10:06:23;;;;;;;10.95;5.42;;;;;;;8.60;52.36;144371.13;1724906;82;21082;-61
2022/02/21 10:08:54;;;;;;;13.93;6.37;;;;;;;8.58;51.99;144366.16;1721961;82;20995;-56
2022/02/21 10:11:28;;;;;;;11.38;6.17;;;;;;;8.50;52.12;144346.08;1701786;83;21001;-55
2022/02/21 10:13:59;;;;;;;17.57;7.87;;;;;;;8.44;52.23;144333.56;1716043;82;21057;-58
2022/02/21 10:16:28;;;;;;;;;;;;;;;8.41;52.35;144326.06;1720751;82;21046;-54
2022/02/21 10:19:18;;;;;;;20.32;6.87;;;;;;;8.44;52.45;144333.56;1715773;83;20184;-59
2022/02/21 10:21:59;;;;;;;14.23;5.53;;;;;;;8.53;52.31;144353.63;1679574;84;21083;-58
2022/02/21 10:24:31;;;;;;;13.25;6.15;;;;;;;8.60;51.93;144371.13;1685364;84;21511;-60
2022/02/21 10:27:12;;;;;;;15.15;6.30;;;;;;;8.64;52.07;144381.16;1723956;83;21040;-60
2022/02/21 10:30:00;;;;;;;11.48;5.85;;;;;;;8.73;51.93;144402.42;1725076;83;21118;-60
2022/02/21 10:32:31;;;;;;;12.43;5.70;;;;;;;8.81;51.80;144423.75;1688144;84;21133;-58
2022/02/21 10:35:15;;;;;;;13.83;6.08;;;;;;;8.90;51.54;144446.31;1702677;84;21015;-62
2022/02/21 10:37:46;;;;;;;14.45;6.70;;;;;;;8.85;51.44;144433.78;1701346;84;21150;-58
2022/02/21 10:40:20;;;;;;;14.43;6.28;;;;;;;8.85;51.55;144433.78;1707543;84;21059;-61
2022/02/21 10:43:06;;;;;;;15.25;6.22;;;;;;;8.88;51.71;144440.05;1701851;84;21032;-61
2022/02/21 10:45:33;;;;;;;13.88;6.10;;;;;;;8.88;51.59;144441.28;1709700;83;21020;-59
2022/02/21 10:48:07;;;;;;;11.30;5.70;;;;;;;8.82;51.66;144426.23;1712140;83;21056;-66
2022/02/21 10:50:58;;;;;;;12.33;6.08;;;;;;;8.78;51.92;144415.00;1708077;83;21029;-63
2022/02/21 10:53:44;;;;;;;14.25;5.67;;;;;;;8.72;52.11;144401.19;1711608;84;21192;-58
2022/02/21 10:56:13;;;;;;;14.00;6.55;;;;;;;8.68;52.30;144391.19;1713535;83;21064;-59
2022/02/21 10:58:40;;;;;;;14.07;6.12;;;;;;;8.61;52.64;144373.66;1711237;83;21069;-61
2022/02/21 11:01:09;;;;;;;15.32;5.37;;;;;;;8.56;53.00;144361.13;1712524;84;21044;-58
2022/02/21 11:03:36;;;;;;;14.68;6.05;;;;;;;8.53;53.06;144353.63;1711378;83;21499;-60
2022/02/21 11:06:05;;;;;;;13.05;6.47;;;;;;;8.49;53.33;144344.84;1701727;84;21099;-58
2022/02/21 11:08:32;;;;;;;13.62;6.95;;;;;;;8.45;53.44;144336.09;1704741;83;21176;-58
2022/02/21 11:11:09;;;;;;;15.38;7.33;;;;;;;8.43;53.67;144331.08;1702053;84;21082;-57
2022/02/21 11:13:37;;;;;;;12.45;6.10;;;;;;;8.40;53.83;144322.33;1708020;84;22199;-58
2022/02/21 11:16:05;;;;;;;16.40;8.15;;;;;;;8.36;54.05;144312.25;1708062;84;21051;-61
2022/02/21 11:18:34;;;;;;;19.17;7.80;;;;;;;8.29;54.39;144295.95;1715297;83;21070;-58
2022/02/21 11:21:03;;;;;;;13.58;6.67;;;;;;;8.27;54.65;144290.98;1755507;81;21087;-57
2022/02/21 11:23:32;;;;;;;15.35;6.67;;;;;;;8.19;54.88;144272.20;1741632;82;21028;-58
2022/02/21 11:26:16;;;;;;;12.63;6.35;;;;;;;8.13;55.17;144257.16;1750142;82;21054;-58
2022/02/21 11:28:59;;;;;;;16.35;6.78;;;;;;;8.10;55.32;144249.66;1750415;82;21123;-57